createdAt,value
2023-04-01T00:08:13.929Z,7.91
2023-04-01T00:18:19.808Z,7.89
2023-04-01T00:28:25.482Z,7.89
2023-04-01T00:38:31.232Z,7.83
2023-04-01T00:48:41.879Z,7.72
2023-04-01T00:58:52.870Z,7.66
2023-04-01T01:09:18.624Z,7.61
2023-04-01T01:19:49.404Z,7.50
2023-04-01T01:30:36.919Z,7.46
2023-04-01T01:40:46.483Z,7.31
2023-04-01T01:50:53.154Z,7.12
2023-04-01T02:01:02.117Z,7.06
2023-04-01T02:11:10.887Z,6.99
2023-04-01T02:21:17.541Z,6.84
2023-04-01T02:31:25.132Z,6.92
2023-04-01T02:41:31.170Z,6.98
2023-04-01T02:51:37.308Z,6.97
2023-04-01T03:01:43.153Z,6.96
2023-04-01T03:11:48.808Z,6.99
2023-04-01T03:21:54.600Z,6.98
2023-04-01T03:32:00.476Z,6.87
2023-04-01T03:42:07.683Z,6.78
2023-04-01T03:52:14.504Z,6.66
2023-04-01T04:02:20.772Z,6.55
2023-04-01T04:12:26.578Z,6.42
2023-04-01T04:22:32.286Z,6.35
2023-04-01T04:32:38.403Z,6.26
2023-04-01T04:42:44.238Z,6.26
2023-04-01T04:52:49.931Z,6.21
2023-04-01T05:02:56.253Z,6.29
2023-04-01T05:13:02.282Z,6.58
2023-04-01T05:23:08.177Z,6.79
2023-04-01T05:33:15.771Z,7.40
2023-04-01T05:43:19.982Z,9.76
2023-04-01T05:53:25.872Z,9.07
2023-04-01T06:03:31.697Z,8.40
2023-04-01T06:13:55.764Z,8.38
2023-04-01T06:24:14.105Z,8.59
2023-04-01T06:34:42.775Z,8.62
2023-04-01T06:45:01.446Z,8.89
2023-04-01T06:55:23.059Z,9.41
2023-04-01T07:05:33.677Z,9.47
2023-04-01T07:15:43.204Z,9.39
2023-04-01T07:25:54.121Z,9.32
2023-04-01T07:36:05.326Z,9.42
2023-04-01T07:46:24.248Z,9.44
2023-04-01T07:56:38.726Z,9.67
2023-04-01T08:06:53.586Z,10.22
2023-04-01T08:17:04.708Z,10.91
2023-04-01T08:27:22.885Z,11.10
2023-04-01T08:37:32.417Z,10.57
2023-04-01T08:47:56.519Z,10.18
2023-04-01T08:58:30.497Z,10.16
2023-04-01T09:08:52.085Z,10.56
2023-04-01T09:19:21.351Z,10.49
2023-04-01T09:29:43.276Z,9.86
2023-04-01T09:40:03.645Z,9.67
2023-04-01T09:50:30.858Z,9.81
2023-04-01T10:01:04.293Z,10.81
2023-04-01T10:11:26.199Z,11.82
2023-04-01T10:22:09.148Z,12.15
2023-04-01T10:32:51.027Z,12.73
2023-04-01T10:43:39.319Z,13.38
2023-04-01T10:54:03.605Z,11.72
2023-04-01T11:04:48.790Z,11.11
2023-04-01T11:15:33.529Z,11.02
2023-04-01T11:26:05.829Z,10.75
2023-04-01T11:36:27.577Z,10.09
2023-04-01T11:46:42.595Z,10.31
2023-04-01T11:57:08.403Z,10.69
2023-04-01T12:07:25.190Z,11.31
2023-04-01T12:17:43.452Z,11.79
2023-04-01T12:28:03.617Z,11.15
2023-04-01T12:38:22.969Z,10.60
2023-04-01T12:49:10.559Z,10.34
2023-04-01T12:59:33.685Z,10.54
2023-04-01T13:09:52.064Z,10.70
2023-04-01T13:20:09.052Z,11.07
2023-04-01T13:30:29.927Z,10.69
2023-04-01T13:40:55.722Z,10.33
2023-04-01T13:51:21.195Z,10.10
2023-04-01T14:01:36.418Z,9.86
2023-04-01T14:11:49.107Z,9.98
2023-04-01T14:22:07.864Z,9.92
2023-04-01T14:32:44.005Z,9.98
2023-04-01T14:43:11.442Z,9.77
2023-04-01T14:53:31.375Z,9.58
2023-04-01T15:03:42.700Z,9.25
2023-04-01T15:14:24.399Z,8.88
2023-04-01T15:24:43.301Z,8.48
2023-04-01T15:35:01.381Z,8.23
2023-04-01T15:45:20.215Z,7.97
2023-04-01T15:55:30.762Z,7.87
2023-04-01T16:05:45.088Z,7.58
2023-04-01T16:16:02.175Z,7.42
2023-04-01T16:26:15.572Z,7.27
2023-04-01T16:36:30.516Z,7.26
2023-04-01T16:46:40.082Z,7.01
2023-04-01T16:56:52.512Z,6.89
2023-04-01T17:07:08.332Z,6.82
2023-04-01T17:17:26.557Z,6.76
2023-04-01T17:27:45.553Z,6.70
2023-04-01T17:38:02.273Z,6.68
2023-04-01T17:48:17.558Z,6.61
2023-04-01T17:58:30.594Z,6.54
2023-04-01T18:08:52.298Z,6.44
2023-04-01T18:19:04.934Z,6.40
2023-04-01T18:29:26.186Z,6.34
2023-04-01T18:39:39.245Z,6.29
2023-04-01T18:49:54.315Z,6.23
2023-04-01T19:00:06.738Z,6.15
2023-04-01T19:10:21.768Z,6.11
2023-04-01T19:20:33.548Z,6.12
2023-04-01T19:30:52.154Z,6.07
2023-04-01T19:41:06.678Z,6.02
2023-04-01T19:51:17.935Z,5.96
2023-04-01T20:01:41.639Z,5.96
2023-04-01T20:11:58.182Z,5.98
2023-04-01T20:22:07.565Z,5.87
2023-04-01T20:32:27.335Z,5.82
2023-04-01T20:42:53.622Z,5.71
2023-04-01T20:53:07.551Z,5.56
2023-04-01T21:03:26.328Z,5.43
2023-04-01T21:13:48.882Z,5.32
2023-04-01T21:24:07.184Z,5.23
2023-04-01T21:34:37.987Z,5.22
2023-04-01T21:44:52.894Z,5.08
2023-04-01T21:55:26.480Z,4.92
2023-04-01T22:05:37.805Z,4.78
2023-04-01T22:16:02.566Z,4.68
2023-04-01T22:26:17.396Z,4.54
2023-04-01T22:36:33.198Z,4.40
2023-04-01T22:46:55.435Z,4.38
2023-04-01T22:57:05.672Z,4.26
2023-04-01T23:07:48.056Z,4.08
2023-04-01T23:18:05.719Z,3.88
2023-04-01T23:28:38.329Z,3.69
2023-04-01T23:38:49.834Z,3.59
2023-04-01T23:48:56.402Z,3.48
2023-04-01T23:59:04.175Z,3.40
